sensor_id;sensor_type;location;lat;lon;timestamp;P1;durP1;ratioP1;P2;durP2;ratioP2
74335;SDS011;62755;-33.398;-70.572;2023-11-21T00:01:34;9.57;;;2.22;;
74335;SDS011;62755;-33.398;-70.572;2023-11-21T00:04:03;10.25;;;2.08;;
74335;SDS011;62755;-33.398;-70.572;2023-11-21T00:06:33;6.63;;;2.22;;
74335;SDS011;62755;-33.398;-70.572;2023-11-21T00:09:03;13.48;;;1.50;;
74335;SDS011;62755;-33.398;-70.572;2023-11-21T00:11:34;10.00;;;2.35;;
74335;SDS011;62755;-33.398;-70.572;2023-11-21T00:14:04;8.95;;;2.00;;
74335;SDS011;62755;-33.398;-70.572;2023-11-21T00:16:35;8.55;;;1.63;;
74335;SDS011;62755;-33.398;-70.572;2023-11-21T00:19:05;15.05;;;3.92;;
74335;SDS011;62755;-33.398;-70.572;2023-11-21T00:21:35;9.40;;;2.92;;
74335;SDS011;62755;-33.398;-70.572;2023-11-21T00:24:07;7.32;;;1.95;;
74335;SDS011;62755;-33.398;-70.572;2023-11-21T00:26:39;10.27;;;2.05;;
74335;SDS011;62755;-33.398;-70.572;2023-11-21T00:29:08;16.75;;;5.93;;
74335;SDS011;62755;-33.398;-70.572;2023-11-21T00:31:39;9.25;;;2.10;;
74335;SDS011;62755;-33.398;-70.572;2023-11-21T00:34:09;14.05;;;4.15;;
74335;SDS011;62755;-33.398;-70.572;2023-11-21T00:36:39;15.80;;;6.05;;
74335;SDS011;62755;-33.398;-70.572;2023-11-21T00:39:08;13.45;;;1.92;;
74335;SDS011;62755;-33.398;-70.572;2023-11-21T00:41:38;11.95;;;3.22;;
74335;SDS011;62755;-33.398;-70.572;2023-11-21T00:44:08;5.50;;;1.75;;
74335;SDS011;62755;-33.398;-70.572;2023-11-21T00:46:37;7.05;;;2.67;;
74335;SDS011;62755;-33.398;-70.572;2023-11-21T00:49:08;18.75;;;3.38;;
74335;SDS011;62755;-33.398;-70.572;2023-11-21T00:51:38;12.52;;;2.60;;
74335;SDS011;62755;-33.398;-70.572;2023-11-21T00:54:07;7.82;;;2.40;;
74335;SDS011;62755;-33.398;-70.572;2023-11-21T00:56:37;6.07;;;1.83;;
74335;SDS011;62755;-33.398;-70.572;2023-11-21T00:59:06;11.57;;;2.28;;
74335;SDS011;62755;-33.398;-70.572;2023-11-21T01:01:36;7.40;;;2.33;;
74335;SDS011;62755;-33.398;-70.572;2023-11-21T01:04:08;6.05;;;2.00;;
74335;SDS011;62755;-33.398;-70.572;2023-11-21T01:06:37;7.63;;;2.30;;
74335;SDS011;62755;-33.398;-70.572;2023-11-21T01:09:07;10.07;;;3.10;;
74335;SDS011;62755;-33.398;-70.572;2023-11-21T01:11:36;7.85;;;2.58;;
74335;SDS011;62755;-33.398;-70.572;2023-11-21T01:14:06;10.20;;;1.70;;
74335;SDS011;62755;-33.398;-70.572;2023-11-21T01:16:36;12.93;;;2.47;;
74335;SDS011;62755;-33.398;-70.572;2023-11-21T01:19:07;7.85;;;2.30;;
74335;SDS011;62755;-33.398;-70.572;2023-11-21T01:21:39;9.13;;;1.83;;
74335;SDS011;62755;-33.398;-70.572;2023-11-21T01:24:10;11.30;;;1.70;;
74335;SDS011;62755;-33.398;-70.572;2023-11-21T01:26:39;16.50;;;2.28;;
74335;SDS011;62755;-33.398;-70.572;2023-11-21T01:29:09;7.13;;;1.35;;
74335;SDS011;62755;-33.398;-70.572;2023-11-21T01:31:38;10.52;;;1.85;;
74335;SDS011;62755;-33.398;-70.572;2023-11-21T01:34:10;6.70;;;1.80;;
74335;SDS011;62755;-33.398;-70.572;2023-11-21T01:36:40;8.25;;;1.52;;
74335;SDS011;62755;-33.398;-70.572;2023-11-21T01:39:09;11.82;;;2.20;;
74335;SDS011;62755;-33.398;-70.572;2023-11-21T01:41:41;5.47;;;1.63;;
74335;SDS011;62755;-33.398;-70.572;2023-11-21T01:44:11;8.98;;;1.80;;
74335;SDS011;62755;-33.398;-70.572;2023-11-21T01:46:41;8.43;;;2.17;;
74335;SDS011;62755;-33.398;-70.572;2023-11-21T01:49:12;5.53;;;1.60;;
74335;SDS011;62755;-33.398;-70.572;2023-11-21T01:51:42;10.80;;;2.00;;
74335;SDS011;62755;-33.398;-70.572;2023-11-21T01:54:15;8.88;;;1.40;;
74335;SDS011;62755;-33.398;-70.572;2023-11-21T01:56:46;9.73;;;3.40;;
74335;SDS011;62755;-33.398;-70.572;2023-11-21T01:59:18;10.45;;;2.95;;
74335;SDS011;62755;-33.398;-70.572;2023-11-21T02:01:49;12.95;;;3.40;;
74335;SDS011;62755;-33.398;-70.572;2023-11-21T02:04:20;10.23;;;2.55;;
74335;SDS011;62755;-33.398;-70.572;2023-11-21T02:06:49;16.48;;;2.80;;
74335;SDS011;62755;-33.398;-70.572;2023-11-21T02:09:23;12.18;;;3.60;;
74335;SDS011;62755;-33.398;-70.572;2023-11-21T02:11:54;7.45;;;1.95;;
74335;SDS011;62755;-33.398;-70.572;2023-11-21T02:14:24;10.70;;;2.30;;
74335;SDS011;62755;-33.398;-70.572;2023-11-21T02:16:54;11.23;;;3.10;;
74335;SDS011;62755;-33.398;-70.572;2023-11-21T02:19:26;10.00;;;2.63;;
74335;SDS011;62755;-33.398;-70.572;2023-11-21T02:21:56;11.32;;;3.92;;
74335;SDS011;62755;-33.398;-70.572;2023-11-21T02:24:32;14.38;;;4.00;;
74335;SDS011;62755;-33.398;-70.572;2023-11-21T02:27:02;13.48;;;2.58;;
74335;SDS011;62755;-33.398;-70.572;2023-11-21T02:29:32;11.02;;;3.10;;
74335;SDS011;62755;-33.398;-70.572;2023-11-21T02:32:01;17.23;;;8.23;;
74335;SDS011;62755;-33.398;-70.572;2023-11-21T02:34:31;16.63;;;6.85;;
74335;SDS011;62755;-33.398;-70.572;2023-11-21T02:37:00;23.65;;;11.82;;
74335;SDS011;62755;-33.398;-70.572;2023-11-21T02:39:30;18.33;;;6.15;;
74335;SDS011;62755;-33.398;-70.572;2023-11-21T02:42:01;11.82;;;3.95;;
74335;SDS011;62755;-33.398;-70.572;2023-11-21T02:44:31;16.45;;;5.72;;
74335;SDS011;62755;-33.398;-70.572;2023-11-21T02:47:00;8.75;;;2.42;;
74335;SDS011;62755;-33.398;-70.572;2023-11-21T02:49:30;10.60;;;3.20;;
74335;SDS011;62755;-33.398;-70.572;2023-11-21T02:52:00;9.30;;;2.35;;
74335;SDS011;62755;-33.398;-70.572;2023-11-21T02:54:30;6.93;;;2.00;;
74335;SDS011;62755;-33.398;-70.572;2023-11-21T02:57:12;8.02;;;1.98;;
74335;SDS011;62755;-33.398;-70.572;2023-11-21T02:59:40;12.18;;;3.17;;
74335;SDS011;62755;-33.398;-70.572;2023-11-21T03:02:10;16.58;;;7.63;;
74335;SDS011;62755;-33.398;-70.572;2023-11-21T03:04:45;21.73;;;10.00;;
74335;SDS011;62755;-33.398;-70.572;2023-11-21T03:07:21;33.63;;;13.73;;
74335;SDS011;62755;-33.398;-70.572;2023-11-21T03:09:52;27.88;;;11.98;;
74335;SDS011;62755;-33.398;-70.572;2023-11-21T03:12:22;20.60;;;7.93;;
74335;SDS011;62755;-33.398;-70.572;2023-11-21T03:14:51;15.80;;;6.50;;
74335;SDS011;62755;-33.398;-70.572;2023-11-21T03:17:22;16.92;;;5.75;;
74335;SDS011;62755;-33.398;-70.572;2023-11-21T03:19:51;12.80;;;4.05;;
74335;SDS011;62755;-33.398;-70.572;2023-11-21T03:22:21;9.70;;;2.22;;
74335;SDS011;62755;-33.398;-70.572;2023-11-21T03:24:52;10.02;;;2.08;;
74335;SDS011;62755;-33.398;-70.572;2023-11-21T03:27:21;7.57;;;1.85;;
74335;SDS011;62755;-33.398;-70.572;2023-11-21T03:29:51;10.27;;;2.47;;
74335;SDS011;62755;-33.398;-70.572;2023-11-21T03:32:20;15.48;;;2.45;;
74335;SDS011;62755;-33.398;-70.572;2023-11-21T03:34:53;8.02;;;1.98;;
74335;SDS011;62755;-33.398;-70.572;2023-11-21T03:37:24;8.35;;;1.90;;
74335;SDS011;62755;-33.398;-70.572;2023-11-21T03:39:55;11.65;;;1.70;;
74335;SDS011;62755;-33.398;-70.572;2023-11-21T03:42:25;11.93;;;1.70;;
74335;SDS011;62755;-33.398;-70.572;2023-11-21T03:44:54;11.55;;;3.60;;
74335;SDS011;62755;-33.398;-70.572;2023-11-21T03:47:24;13.48;;;2.65;;
74335;SDS011;62755;-33.398;-70.572;2023-11-21T03:49:54;5.93;;;1.75;;
74335;SDS011;62755;-33.398;-70.572;2023-11-21T03:52:24;8.15;;;1.80;;
74335;SDS011;62755;-33.398;-70.572;2023-11-21T03:54:56;11.68;;;1.90;;
74335;SDS011;62755;-33.398;-70.572;2023-11-21T03:57:26;11.52;;;2.03;;
74335;SDS011;62755;-33.398;-70.572;2023-11-21T03:59:55;12.65;;;1.88;;
74335;SDS011;62755;-33.398;-70.572;2023-11-21T04:02:25;6.22;;;1.63;;
74335;SDS011;62755;-33.398;-70.572;2023-11-21T04:04:54;7.78;;;1.52;;
74335;SDS011;62755;-33.398;-70.572;2023-11-21T04:07:23;11.85;;;2.00;;
74335;SDS011;62755;-33.398;-70.572;2023-11-21T04:10:13;7.65;;;1.80;;
74335;SDS011;62755;-33.398;-70.572;2023-11-21T04:12:43;8.82;;;1.50;;
74335;SDS011;62755;-33.398;-70.572;2023-11-21T04:15:13;10.80;;;1.83;;
74335;SDS011;62755;-33.398;-70.572;2023-11-21T04:17:43;14.23;;;2.20;;
74335;SDS011;62755;-33.398;-70.572;2023-11-21T04:20:13;7.60;;;1.48;;
74335;SDS011;62755;-33.398;-70.572;2023-11-21T04:22:43;7.97;;;1.60;;
74335;SDS011;62755;-33.398;-70.572;2023-11-21T04:25:15;7.78;;;1.83;;
74335;SDS011;62755;-33.398;-70.572;2023-11-21T04:27:44;9.27;;;1.52;;
74335;SDS011;62755;-33.398;-70.572;2023-11-21T04:30:14;14.75;;;2.25;;
74335;SDS011;62755;-33.398;-70.572;2023-11-21T04:32:44;12.82;;;2.00;;
74335;SDS011;62755;-33.398;-70.572;2023-11-21T04:35:13;9.80;;;1.70;;
74335;SDS011;62755;-33.398;-70.572;2023-11-21T04:37:44;9.80;;;1.75;;
74335;SDS011;62755;-33.398;-70.572;2023-11-21T04:40:20;9.60;;;1.83;;
74335;SDS011;62755;-33.398;-70.572;2023-11-21T04:42:49;14.30;;;1.67;;
74335;SDS011;62755;-33.398;-70.572;2023-11-21T04:45:19;7.38;;;1.85;;
74335;SDS011;62755;-33.398;-70.572;2023-11-21T04:47:48;10.68;;;2.45;;
74335;SDS011;62755;-33.398;-70.572;2023-11-21T04:50:18;11.10;;;2.55;;
74335;SDS011;62755;-33.398;-70.572;2023-11-21T04:52:48;12.05;;;2.20;;
74335;SDS011;62755;-33.398;-70.572;2023-11-21T04:55:19;9.10;;;1.83;;
74335;SDS011;62755;-33.398;-70.572;2023-11-21T04:57:49;12.80;;;2.00;;
74335;SDS011;62755;-33.398;-70.572;2023-11-21T05:00:18;11.73;;;2.35;;
74335;SDS011;62755;-33.398;-70.572;2023-11-21T05:02:48;8.52;;;2.08;;
74335;SDS011;62755;-33.398;-70.572;2023-11-21T05:05:18;13.07;;;2.30;;
74335;SDS011;62755;-33.398;-70.572;2023-11-21T05:07:48;12.88;;;2.28;;
74335;SDS011;62755;-33.398;-70.572;2023-11-21T05:10:21;16.63;;;1.83;;
74335;SDS011;62755;-33.398;-70.572;2023-11-21T05:12:50;8.95;;;1.88;;
74335;SDS011;62755;-33.398;-70.572;2023-11-21T05:15:20;12.20;;;2.25;;
74335;SDS011;62755;-33.398;-70.572;2023-11-21T05:17:49;11.75;;;2.28;;
74335;SDS011;62755;-33.398;-70.572;2023-11-21T05:20:19;6.97;;;1.90;;
74335;SDS011;62755;-33.398;-70.572;2023-11-21T05:22:50;7.07;;;1.83;;
74335;SDS011;62755;-33.398;-70.572;2023-11-21T05:25:22;11.52;;;2.50;;
74335;SDS011;62755;-33.398;-70.572;2023-11-21T05:27:51;9.40;;;2.05;;
74335;SDS011;62755;-33.398;-70.572;2023-11-21T05:30:21;6.82;;;1.80;;
74335;SDS011;62755;-33.398;-70.572;2023-11-21T05:32:50;7.70;;;1.88;;
74335;SDS011;62755;-33.398;-70.572;2023-11-21T05:35:20;5.90;;;1.63;;
74335;SDS011;62755;-33.398;-70.572;2023-11-21T05:37:49;7.72;;;1.52;;
74335;SDS011;62755;-33.398;-70.572;2023-11-21T05:40:19;11.15;;;2.25;;
74335;SDS011;62755;-33.398;-70.572;2023-11-21T05:42:52;7.43;;;1.90;;
74335;SDS011;62755;-33.398;-70.572;2023-11-21T05:45:21;6.75;;;1.98;;
74335;SDS011;62755;-33.398;-70.572;2023-11-21T05:47:51;13.40;;;1.77;;
74335;SDS011;62755;-33.398;-70.572;2023-11-21T05:50:21;7.72;;;1.75;;
74335;SDS011;62755;-33.398;-70.572;2023-11-21T05:52:50;8.70;;;1.55;;
74335;SDS011;62755;-33.398;-70.572;2023-11-21T05:55:22;15.68;;;1.73;;
74335;SDS011;62755;-33.398;-70.572;2023-11-21T05:57:52;7.63;;;1.58;;
74335;SDS011;62755;-33.398;-70.572;2023-11-21T06:00:22;6.93;;;1.80;;
74335;SDS011;62755;-33.398;-70.572;2023-11-21T06:02:51;19.70;;;1.95;;
74335;SDS011;62755;-33.398;-70.572;2023-11-21T06:05:21;12.13;;;2.47;;
74335;SDS011;62755;-33.398;-70.572;2023-11-21T06:07:51;11.38;;;2.38;;
74335;SDS011;62755;-33.398;-70.572;2023-11-21T06:10:24;6.78;;;1.88;;
74335;SDS011;62755;-33.398;-70.572;2023-11-21T06:12:54;10.65;;;1.73;;
74335;SDS011;62755;-33.398;-70.572;2023-11-21T06:15:23;10.90;;;2.15;;
74335;SDS011;62755;-33.398;-70.572;2023-11-21T06:17:53;10.95;;;1.80;;
74335;SDS011;62755;-33.398;-70.572;2023-11-21T06:20:22;4.70;;;1.60;;
74335;SDS011;62755;-33.398;-70.572;2023-11-21T06:22:51;8.75;;;1.90;;
74335;SDS011;62755;-33.398;-70.572;2023-11-21T06:25:21;10.88;;;2.05;;
74335;SDS011;62755;-33.398;-70.572;2023-11-21T06:27:53;8.13;;;1.98;;
74335;SDS011;62755;-33.398;-70.572;2023-11-21T06:30:22;9.57;;;1.98;;
74335;SDS011;62755;-33.398;-70.572;2023-11-21T06:32:51;11.40;;;1.77;;
74335;SDS011;62755;-33.398;-70.572;2023-11-21T06:35:22;7.82;;;1.83;;
74335;SDS011;62755;-33.398;-70.572;2023-11-21T06:37:53;11.40;;;2.08;;
74335;SDS011;62755;-33.398;-70.572;2023-11-21T06:40:25;10.90;;;1.88;;
74335;SDS011;62755;-33.398;-70.572;2023-11-21T06:42:54;15.10;;;2.10;;
74335;SDS011;62755;-33.398;-70.572;2023-11-21T06:45:24;6.63;;;1.50;;
74335;SDS011;62755;-33.398;-70.572;2023-11-21T06:47:54;8.30;;;2.08;;
74335;SDS011;62755;-33.398;-70.572;2023-11-21T06:50:23;11.13;;;2.30;;
74335;SDS011;62755;-33.398;-70.572;2023-11-21T06:52:53;11.10;;;2.20;;
74335;SDS011;62755;-33.398;-70.572;2023-11-21T06:55:24;8.73;;;2.00;;
74335;SDS011;62755;-33.398;-70.572;2023-11-21T06:57:53;8.50;;;2.17;;
74335;SDS011;62755;-33.398;-70.572;2023-11-21T07:00:24;8.93;;;2.05;;
74335;SDS011;62755;-33.398;-70.572;2023-11-21T07:02:53;12.43;;;2.42;;
74335;SDS011;62755;-33.398;-70.572;2023-11-21T07:05:23;8.35;;;1.80;;
74335;SDS011;62755;-33.398;-70.572;2023-11-21T07:07:53;6.53;;;1.60;;
74335;SDS011;62755;-33.398;-70.572;2023-11-21T07:10:24;10.43;;;1.90;;
74335;SDS011;62755;-33.398;-70.572;2023-11-21T07:12:53;10.88;;;2.00;;
74335;SDS011;62755;-33.398;-70.572;2023-11-21T07:15:23;9.40;;;1.83;;
74335;SDS011;62755;-33.398;-70.572;2023-11-21T07:17:53;11.57;;;1.98;;
74335;SDS011;62755;-33.398;-70.572;2023-11-21T07:20:23;6.55;;;1.52;;
74335;SDS011;62755;-33.398;-70.572;2023-11-21T07:22:53;13.18;;;2.30;;
74335;SDS011;62755;-33.398;-70.572;2023-11-21T07:25:22;7.68;;;1.60;;
74335;SDS011;62755;-33.398;-70.572;2023-11-21T07:27:53;7.90;;;1.50;;
74335;SDS011;62755;-33.398;-70.572;2023-11-21T07:30:22;10.40;;;1.90;;
74335;SDS011;62755;-33.398;-70.572;2023-11-21T07:32:52;11.38;;;2.22;;
74335;SDS011;62755;-33.398;-70.572;2023-11-21T07:35:21;6.78;;;1.60;;
74335;SDS011;62755;-33.398;-70.572;2023-11-21T07:37:51;10.65;;;1.80;;
74335;SDS011;62755;-33.398;-70.572;2023-11-21T07:40:20;9.68;;;1.80;;
74335;SDS011;62755;-33.398;-70.572;2023-11-21T07:42:51;8.48;;;1.73;;
74335;SDS011;62755;-33.398;-70.572;2023-11-21T07:45:23;6.35;;;1.80;;
74335;SDS011;62755;-33.398;-70.572;2023-11-21T07:47:53;14.75;;;2.33;;
74335;SDS011;62755;-33.398;-70.572;2023-11-21T07:50:23;8.95;;;2.03;;
74335;SDS011;62755;-33.398;-70.572;2023-11-21T07:52:52;10.45;;;1.95;;
74335;SDS011;62755;-33.398;-70.572;2023-11-21T07:55:22;11.68;;;1.65;;
74335;SDS011;62755;-33.398;-70.572;2023-11-21T07:57:54;12.48;;;1.95;;
74335;SDS011;62755;-33.398;-70.572;2023-11-21T08:00:23;5.97;;;1.90;;
74335;SDS011;62755;-33.398;-70.572;2023-11-21T08:02:56;5.25;;;1.90;;
74335;SDS011;62755;-33.398;-70.572;2023-11-21T08:05:25;14.75;;;2.08;;
74335;SDS011;62755;-33.398;-70.572;2023-11-21T08:07:55;11.35;;;2.25;;
74335;SDS011;62755;-33.398;-70.572;2023-11-21T08:10:24;13.75;;;2.70;;
74335;SDS011;62755;-33.398;-70.572;2023-11-21T08:12:56;14.10;;;2.40;;
74335;SDS011;62755;-33.398;-70.572;2023-11-21T08:15:25;9.23;;;1.83;;
74335;SDS011;62755;-33.398;-70.572;2023-11-21T08:17:54;7.53;;;1.60;;
74335;SDS011;62755;-33.398;-70.572;2023-11-21T08:20:24;6.72;;;1.95;;
74335;SDS011;62755;-33.398;-70.572;2023-11-21T08:22:54;8.48;;;1.92;;
74335;SDS011;62755;-33.398;-70.572;2023-11-21T08:25:24;8.43;;;2.13;;
74335;SDS011;62755;-33.398;-70.572;2023-11-21T08:27:55;7.35;;;2.22;;
74335;SDS011;62755;-33.398;-70.572;2023-11-21T08:30:24;5.78;;;1.80;;
74335;SDS011;62755;-33.398;-70.572;2023-11-21T08:32:55;10.43;;;1.98;;
74335;SDS011;62755;-33.398;-70.572;2023-11-21T08:35:25;5.15;;;1.90;;
74335;SDS011;62755;-33.398;-70.572;2023-11-21T08:37:55;4.35;;;1.95;;
74335;SDS011;62755;-33.398;-70.572;2023-11-21T08:40:24;7.95;;;2.25;;
74335;SDS011;62755;-33.398;-70.572;2023-11-21T08:42:55;6.20;;;1.98;;
74335;SDS011;62755;-33.398;-70.572;2023-11-21T08:45:26;6.40;;;1.95;;
74335;SDS011;62755;-33.398;-70.572;2023-11-21T08:47:55;8.30;;;2.38;;
74335;SDS011;62755;-33.398;-70.572;2023-11-21T08:50:25;5.03;;;1.70;;
74335;SDS011;62755;-33.398;-70.572;2023-11-21T08:52:54;8.50;;;2.25;;
74335;SDS011;62755;-33.398;-70.572;2023-11-21T08:55:23;12.18;;;2.75;;
74335;SDS011;62755;-33.398;-70.572;2023-11-21T08:57:55;7.82;;;2.13;;
74335;SDS011;62755;-33.398;-70.572;2023-11-21T09:03:01;7.63;;;2.22;;
74335;SDS011;62755;-33.398;-70.572;2023-11-21T09:05:37;12.80;;;2.45;;
74335;SDS011;62755;-33.398;-70.572;2023-11-21T09:08:06;7.78;;;2.25;;
74335;SDS011;62755;-33.398;-70.572;2023-11-21T09:10:36;10.68;;;2.35;;
74335;SDS011;62755;-33.398;-70.572;2023-11-21T09:13:07;9.52;;;2.08;;
74335;SDS011;62755;-33.398;-70.572;2023-11-21T09:15:36;8.73;;;2.45;;
74335;SDS011;62755;-33.398;-70.572;2023-11-21T09:18:06;9.30;;;2.00;;
74335;SDS011;62755;-33.398;-70.572;2023-11-21T09:20:36;11.20;;;2.40;;
74335;SDS011;62755;-33.398;-70.572;2023-11-21T09:23:05;8.95;;;2.53;;
74335;SDS011;62755;-33.398;-70.572;2023-11-21T09:25:35;9.57;;;2.10;;
74335;SDS011;62755;-33.398;-70.572;2023-11-21T09:28:05;8.43;;;2.40;;
74335;SDS011;62755;-33.398;-70.572;2023-11-21T09:30:36;8.18;;;2.20;;
74335;SDS011;62755;-33.398;-70.572;2023-11-21T09:33:06;6.50;;;2.30;;
74335;SDS011;62755;-33.398;-70.572;2023-11-21T09:35:37;14.07;;;2.47;;
74335;SDS011;62755;-33.398;-70.572;2023-11-21T09:38:07;9.70;;;1.80;;
74335;SDS011;62755;-33.398;-70.572;2023-11-21T09:40:36;6.13;;;2.03;;
74335;SDS011;62755;-33.398;-70.572;2023-11-21T09:43:09;8.07;;;1.88;;
74335;SDS011;62755;-33.398;-70.572;2023-11-21T09:45:45;9.93;;;2.00;;
74335;SDS011;62755;-33.398;-70.572;2023-11-21T09:48:16;7.85;;;2.33;;
74335;SDS011;62755;-33.398;-70.572;2023-11-21T09:50:47;8.43;;;2.22;;
74335;SDS011;62755;-33.398;-70.572;2023-11-21T09:53:18;9.95;;;2.78;;
74335;SDS011;62755;-33.398;-70.572;2023-11-21T09:55:51;13.43;;;3.13;;
74335;SDS011;62755;-33.398;-70.572;2023-11-21T09:58:24;13.38;;;2.97;;
74335;SDS011;62755;-33.398;-70.572;2023-11-21T10:00:55;14.85;;;2.78;;
74335;SDS011;62755;-33.398;-70.572;2023-11-21T10:03:29;11.95;;;3.00;;
74335;SDS011;62755;-33.398;-70.572;2023-11-21T10:05:58;12.70;;;2.60;;
74335;SDS011;62755;-33.398;-70.572;2023-11-21T10:08:28;23.00;;;3.72;;
74335;SDS011;62755;-33.398;-70.572;2023-11-21T10:10:58;11.52;;;2.65;;
74335;SDS011;62755;-33.398;-70.572;2023-11-21T10:13:30;16.02;;;2.90;;
74335;SDS011;62755;-33.398;-70.572;2023-11-21T10:16:01;15.38;;;3.60;;
74335;SDS011;62755;-33.398;-70.572;2023-11-21T10:18:32;16.48;;;3.42;;
74335;SDS011;62755;-33.398;-70.572;2023-11-21T10:21:05;15.57;;;3.15;;
74335;SDS011;62755;-33.398;-70.572;2023-11-21T10:23:35;18.73;;;2.80;;
74335;SDS011;62755;-33.398;-70.572;2023-11-21T10:26:05;19.05;;;3.58;;
74335;SDS011;62755;-33.398;-70.572;2023-11-21T10:28:38;9.05;;;2.90;;
74335;SDS011;62755;-33.398;-70.572;2023-11-21T10:31:07;12.63;;;2.85;;
74335;SDS011;62755;-33.398;-70.572;2023-11-21T10:33:37;10.07;;;3.05;;
74335;SDS011;62755;-33.398;-70.572;2023-11-21T10:36:07;11.15;;;2.90;;
74335;SDS011;62755;-33.398;-70.572;2023-11-21T10:38:42;12.60;;;3.28;;
74335;SDS011;62755;-33.398;-70.572;2023-11-21T10:43:43;13.75;;;2.60;;
74335;SDS011;62755;-33.398;-70.572;2023-11-21T10:46:13;10.55;;;2.83;;
74335;SDS011;62755;-33.398;-70.572;2023-11-21T10:48:45;16.33;;;3.22;;
74335;SDS011;62755;-33.398;-70.572;2023-11-21T10:51:20;14.47;;;3.47;;
74335;SDS011;62755;-33.398;-70.572;2023-11-21T10:53:50;11.43;;;4.10;;
74335;SDS011;62755;-33.398;-70.572;2023-11-21T10:56:20;14.15;;;3.58;;
74335;SDS011;62755;-33.398;-70.572;2023-11-21T10:58:57;12.90;;;3.67;;
74335;SDS011;62755;-33.398;-70.572;2023-11-21T11:01:27;11.45;;;3.65;;
74335;SDS011;62755;-33.398;-70.572;2023-11-21T11:03:58;13.77;;;3.53;;
74335;SDS011;62755;-33.398;-70.572;2023-11-21T11:06:28;18.73;;;4.15;;
74335;SDS011;62755;-33.398;-70.572;2023-11-21T11:08:58;13.88;;;3.53;;
74335;SDS011;62755;-33.398;-70.572;2023-11-21T11:11:31;21.83;;;4.57;;
74335;SDS011;62755;-33.398;-70.572;2023-11-21T11:14:04;11.52;;;4.00;;
74335;SDS011;62755;-33.398;-70.572;2023-11-21T11:16:33;15.15;;;4.07;;
74335;SDS011;62755;-33.398;-70.572;2023-11-21T11:19:04;7.63;;;3.53;;
74335;SDS011;62755;-33.398;-70.572;2023-11-21T11:21:37;11.48;;;3.80;;
74335;SDS011;62755;-33.398;-70.572;2023-11-21T11:24:28;15.30;;;4.28;;
74335;SDS011;62755;-33.398;-70.572;2023-11-21T11:27:12;14.40;;;4.10;;
74335;SDS011;62755;-33.398;-70.572;2023-11-21T11:29:55;15.95;;;5.32;;
74335;SDS011;62755;-33.398;-70.572;2023-11-21T11:32:37;14.25;;;4.18;;
74335;SDS011;62755;-33.398;-70.572;2023-11-21T11:35:17;19.60;;;3.97;;
74335;SDS011;62755;-33.398;-70.572;2023-11-21T11:37:53;16.58;;;3.72;;
74335;SDS011;62755;-33.398;-70.572;2023-11-21T11:40:22;18.80;;;3.90;;
74335;SDS011;62755;-33.398;-70.572;2023-11-21T11:42:56;16.95;;;4.00;;
74335;SDS011;62755;-33.398;-70.572;2023-11-21T11:45:33;19.73;;;4.25;;
74335;SDS011;62755;-33.398;-70.572;2023-11-21T11:48:07;15.75;;;4.00;;
74335;SDS011;62755;-33.398;-70.572;2023-11-21T11:50:42;11.45;;;3.80;;
74335;SDS011;62755;-33.398;-70.572;2023-11-21T11:53:35;12.82;;;4.00;;
74335;SDS011;62755;-33.398;-70.572;2023-11-21T11:59:00;13.38;;;4.20;;
74335;SDS011;62755;-33.398;-70.572;2023-11-21T12:01:33;13.95;;;3.63;;
74335;SDS011;62755;-33.398;-70.572;2023-11-21T12:06:59;6.68;;;3.25;;
74335;SDS011;62755;-33.398;-70.572;2023-11-21T12:09:30;13.57;;;4.05;;
74335;SDS011;62755;-33.398;-70.572;2023-11-21T12:12:01;16.83;;;4.50;;
74335;SDS011;62755;-33.398;-70.572;2023-11-21T12:14:31;13.90;;;4.85;;
74335;SDS011;62755;-33.398;-70.572;2023-11-21T12:17:03;20.63;;;4.30;;
74335;SDS011;62755;-33.398;-70.572;2023-11-21T12:19:33;15.35;;;4.47;;
74335;SDS011;62755;-33.398;-70.572;2023-11-21T12:22:03;9.75;;;3.92;;
74335;SDS011;62755;-33.398;-70.572;2023-11-21T12:24:34;11.63;;;4.03;;
74335;SDS011;62755;-33.398;-70.572;2023-11-21T12:27:03;17.58;;;3.97;;
74335;SDS011;62755;-33.398;-70.572;2023-11-21T12:29:34;21.33;;;4.82;;
74335;SDS011;62755;-33.398;-70.572;2023-11-21T12:32:06;24.17;;;5.72;;
74335;SDS011;62755;-33.398;-70.572;2023-11-21T12:34:36;21.90;;;4.65;;
74335;SDS011;62755;-33.398;-70.572;2023-11-21T12:37:06;20.13;;;5.28;;
74335;SDS011;62755;-33.398;-70.572;2023-11-21T12:39:36;24.10;;;4.90;;
74335;SDS011;62755;-33.398;-70.572;2023-11-21T12:42:06;16.27;;;4.65;;
74335;SDS011;62755;-33.398;-70.572;2023-11-21T12:44:35;15.00;;;4.78;;
74335;SDS011;62755;-33.398;-70.572;2023-11-21T12:47:08;17.33;;;5.45;;
74335;SDS011;62755;-33.398;-70.572;2023-11-21T12:49:40;22.15;;;7.45;;
74335;SDS011;62755;-33.398;-70.572;2023-11-21T12:52:11;12.45;;;4.57;;
74335;SDS011;62755;-33.398;-70.572;2023-11-21T12:54:40;17.40;;;5.15;;
74335;SDS011;62755;-33.398;-70.572;2023-11-21T12:57:09;24.17;;;9.95;;
74335;SDS011;62755;-33.398;-70.572;2023-11-21T12:59:39;45.83;;;23.77;;
74335;SDS011;62755;-33.398;-70.572;2023-11-21T13:02:12;71.88;;;35.85;;
74335;SDS011;62755;-33.398;-70.572;2023-11-21T13:04:41;34.47;;;19.83;;
74335;SDS011;62755;-33.398;-70.572;2023-11-21T13:07:18;33.85;;;13.13;;
74335;SDS011;62755;-33.398;-70.572;2023-11-21T13:09:52;23.50;;;11.43;;
74335;SDS011;62755;-33.398;-70.572;2023-11-21T13:12:24;53.42;;;27.42;;
74335;SDS011;62755;-33.398;-70.572;2023-11-21T13:14:53;23.75;;;10.35;;
74335;SDS011;62755;-33.398;-70.572;2023-11-21T13:17:24;21.23;;;7.28;;
74335;SDS011;62755;-33.398;-70.572;2023-11-21T13:19:54;21.80;;;7.43;;
74335;SDS011;62755;-33.398;-70.572;2023-11-21T13:22:24;13.85;;;6.47;;
74335;SDS011;62755;-33.398;-70.572;2023-11-21T13:24:58;18.08;;;6.85;;
74335;SDS011;62755;-33.398;-70.572;2023-11-21T13:27:33;34.53;;;14.82;;
74335;SDS011;62755;-33.398;-70.572;2023-11-21T13:30:03;30.58;;;13.90;;
74335;SDS011;62755;-33.398;-70.572;2023-11-21T13:32:36;23.60;;;11.95;;
74335;SDS011;62755;-33.398;-70.572;2023-11-21T13:35:06;20.58;;;9.93;;
74335;SDS011;62755;-33.398;-70.572;2023-11-21T13:37:44;24.00;;;9.55;;
74335;SDS011;62755;-33.398;-70.572;2023-11-21T13:40:15;21.00;;;12.70;;
74335;SDS011;62755;-33.398;-70.572;2023-11-21T13:42:49;27.48;;;11.45;;
74335;SDS011;62755;-33.398;-70.572;2023-11-21T13:45:21;29.35;;;15.07;;
74335;SDS011;62755;-33.398;-70.572;2023-11-21T13:47:53;22.98;;;10.40;;
74335;SDS011;62755;-33.398;-70.572;2023-11-21T13:50:25;23.30;;;8.80;;
74335;SDS011;62755;-33.398;-70.572;2023-11-21T13:52:58;18.23;;;8.63;;
74335;SDS011;62755;-33.398;-70.572;2023-11-21T13:55:34;21.77;;;8.18;;
74335;SDS011;62755;-33.398;-70.572;2023-11-21T13:58:05;22.65;;;9.30;;
74335;SDS011;62755;-33.398;-70.572;2023-11-21T14:00:37;28.15;;;9.20;;
74335;SDS011;62755;-33.398;-70.572;2023-11-21T14:03:13;37.90;;;16.98;;
74335;SDS011;62755;-33.398;-70.572;2023-11-21T14:05:47;34.40;;;9.35;;
74335;SDS011;62755;-33.398;-70.572;2023-11-21T14:08:19;35.58;;;9.70;;
74335;SDS011;62755;-33.398;-70.572;2023-11-21T14:10:54;31.48;;;9.25;;
74335;SDS011;62755;-33.398;-70.572;2023-11-21T14:13:25;22.45;;;9.40;;
74335;SDS011;62755;-33.398;-70.572;2023-11-21T14:15:54;17.92;;;9.40;;
74335;SDS011;62755;-33.398;-70.572;2023-11-21T14:18:28;22.70;;;9.27;;
74335;SDS011;62755;-33.398;-70.572;2023-11-21T14:21:04;36.53;;;13.35;;
74335;SDS011;62755;-33.398;-70.572;2023-11-21T14:23:34;38.78;;;15.57;;
74335;SDS011;62755;-33.398;-70.572;2023-11-21T14:26:04;36.80;;;15.90;;
74335;SDS011;62755;-33.398;-70.572;2023-11-21T14:28:34;44.13;;;16.73;;
74335;SDS011;62755;-33.398;-70.572;2023-11-21T14:31:03;48.25;;;14.82;;
74335;SDS011;62755;-33.398;-70.572;2023-11-21T14:33:35;29.42;;;11.25;;